Hauptseite
METAR-TAF:

METAR-TAF

Flughäfen :

Flughafen Luxemburg

Luxemburg, Luxemburg

Breite: 49-37N, Länge: 006-13E, Höhe: 376 m

Beobachtung

Neuester Wetterbericht von vor 16 Minuten, um 14:50 UTC
Wind 3 kt aus Süd
Temperatur -1°C
Luftfeuchtigkeit 100%
Luftdruck 1021 hPa
Sichtweite: 0200 m
Gefrierender Nebel

METAR: ELLX 241450Z 18003KT 0200 R24/0325V0550N FZFG VV002 M01/M01 Q1021 TEMPO 0700

Zeit: 16:06 (15:06 UTC)

Prognose

Neuester Wetterbericht von vor 4 Stunden und 6 Minuten, um 11:00 UTC
Gültige Prognose vom 24 um 12 UTC bis 25 um 18 UTC
Wind 5 kt aus Süd
Sichtweite: 0300 m
in der Höhe von 100 ft
Gefrierender Nebel
Wahrscheinlichkeit 40% :
Zeitweise
vom 24 um 12 UTC bis 25 um 18 UTC
Sichtweite: 1500 m
Durchbrochene Bewölkung in der Höhe von 300 ft
feuchter Dunst

TAF: ELLX 241100Z 2412/2518 18005KT 0300 FZFG VV001 PROB40 TEMPO 2412/2518 1500 BR BKN003

Wetterbeobachtungen und Prognosen von mehr als 4000 Flughäfen (METAR und TAF Bericht).

Die verfügbaren Stationen werden durch gelbe und rote Markierungen auf der Karte dargestellt.

Führen Sie die Maus auf sie, um den Namen der Station zu sehen.

Darauf klicken, um die Beobachtung von Wetterbeobachtungen und Prognosen zu sehen.

Um die Karte zu ändern : klicken Sie auf den grünen Tasten mit einem schwarzen Kreuz Zum Vergrößern, auf den grünen Button mit einem Gedankenstrich zu verkleinern, oder auf die grünen Pfeile für benachbarte Karten.


METAR-TAF: